sensor_id;sensor_type;location;lat;lon;timestamp;P1;durP1;ratioP1;P2;durP2;ratioP2
35757;SDS011;21879;50.110;18.900;2022-07-10T00:01:59;10.90;;;7.10;;
35757;SDS011;21879;50.110;18.900;2022-07-10T00:12:29;10.80;;;6.90;;
35757;SDS011;21879;50.110;18.900;2022-07-10T00:22:59;8.60;;;5.80;;
35757;SDS011;21879;50.110;18.900;2022-07-10T00:33:28;9.30;;;6.90;;
35757;SDS011;21879;50.110;18.900;2022-07-10T00:43:58;8.80;;;5.90;;
35757;SDS011;21879;50.110;18.900;2022-07-10T00:54:29;9.80;;;6.50;;
35757;SDS011;21879;50.110;18.900;2022-07-10T01:04:59;9.50;;;6.10;;
35757;SDS011;21879;50.110;18.900;2022-07-10T01:15:30;7.40;;;4.50;;
35757;SDS011;21879;50.110;18.900;2022-07-10T01:26:01;9.10;;;5.80;;
35757;SDS011;21879;50.110;18.900;2022-07-10T01:36:31;7.50;;;5.20;;
35757;SDS011;21879;50.110;18.900;2022-07-10T01:47:01;13.60;;;7.20;;
35757;SDS011;21879;50.110;18.900;2022-07-10T01:57:30;13.20;;;7.60;;
35757;SDS011;21879;50.110;18.900;2022-07-10T02:07:59;14.00;;;7.80;;
35757;SDS011;21879;50.110;18.900;2022-07-10T02:18:29;10.50;;;6.60;;
35757;SDS011;21879;50.110;18.900;2022-07-10T02:28:59;11.10;;;6.40;;
35757;SDS011;21879;50.110;18.900;2022-07-10T02:39:28;8.90;;;5.40;;
35757;SDS011;21879;50.110;18.900;2022-07-10T02:49:57;6.50;;;4.60;;
35757;SDS011;21879;50.110;18.900;2022-07-10T03:00:27;6.80;;;4.80;;
35757;SDS011;21879;50.110;18.900;2022-07-10T03:10:56;7.10;;;4.60;;
35757;SDS011;21879;50.110;18.900;2022-07-10T03:21:26;7.70;;;4.20;;
35757;SDS011;21879;50.110;18.900;2022-07-10T03:31:56;6.60;;;3.90;;
35757;SDS011;21879;50.110;18.900;2022-07-10T03:42:25;6.10;;;3.80;;
35757;SDS011;21879;50.110;18.900;2022-07-10T03:52:55;4.80;;;3.40;;
35757;SDS011;21879;50.110;18.900;2022-07-10T04:03:24;5.90;;;3.20;;
35757;SDS011;21879;50.110;18.900;2022-07-10T04:13:53;4.00;;;3.00;;
35757;SDS011;21879;50.110;18.900;2022-07-10T04:24:23;4.70;;;2.80;;
35757;SDS011;21879;50.110;18.900;2022-07-10T04:34:52;11.40;;;5.90;;
35757;SDS011;21879;50.110;18.900;2022-07-10T04:45:22;6.40;;;5.00;;
35757;SDS011;21879;50.110;18.900;2022-07-10T04:55:51;5.50;;;3.50;;
35757;SDS011;21879;50.110;18.900;2022-07-10T05:06:21;4.40;;;3.90;;
35757;SDS011;21879;50.110;18.900;2022-07-10T05:16:50;4.50;;;3.20;;
35757;SDS011;21879;50.110;18.900;2022-07-10T05:27:19;3.70;;;2.50;;
35757;SDS011;21879;50.110;18.900;2022-07-10T05:37:48;3.30;;;2.50;;
35757;SDS011;21879;50.110;18.900;2022-07-10T05:48:18;3.80;;;2.90;;
35757;SDS011;21879;50.110;18.900;2022-07-10T05:58:47;3.40;;;2.60;;
35757;SDS011;21879;50.110;18.900;2022-07-10T06:09:16;3.20;;;2.80;;
35757;SDS011;21879;50.110;18.900;2022-07-10T06:19:46;3.40;;;2.30;;
35757;SDS011;21879;50.110;18.900;2022-07-10T06:30:15;3.30;;;2.10;;
35757;SDS011;21879;50.110;18.900;2022-07-10T06:40:44;2.90;;;2.20;;
35757;SDS011;21879;50.110;18.900;2022-07-10T06:51:14;3.20;;;2.00;;
35757;SDS011;21879;50.110;18.900;2022-07-10T07:01:44;3.10;;;2.10;;
35757;SDS011;21879;50.110;18.900;2022-07-10T07:12:14;7.20;;;2.10;;
35757;SDS011;21879;50.110;18.900;2022-07-10T07:22:43;2.30;;;1.70;;
35757;SDS011;21879;50.110;18.900;2022-07-10T07:33:30;1.90;;;1.60;;
35757;SDS011;21879;50.110;18.900;2022-07-10T07:43:59;2.80;;;1.20;;
35757;SDS011;21879;50.110;18.900;2022-07-10T07:54:31;5.20;;;1.30;;
35757;SDS011;21879;50.110;18.900;2022-07-10T08:05:01;5.00;;;1.30;;
35757;SDS011;21879;50.110;18.900;2022-07-10T08:15:31;2.70;;;1.00;;
35757;SDS011;21879;50.110;18.900;2022-07-10T08:26:01;2.60;;;1.00;;
35757;SDS011;21879;50.110;18.900;2022-07-10T08:36:31;3.80;;;1.30;;
35757;SDS011;21879;50.110;18.900;2022-07-10T08:47:07;5.20;;;1.10;;
35757;SDS011;21879;50.110;18.900;2022-07-10T08:57:37;2.50;;;1.10;;
35757;SDS011;21879;50.110;18.900;2022-07-10T09:08:22;3.70;;;1.20;;
35757;SDS011;21879;50.110;18.900;2022-07-10T09:18:54;1.70;;;1.00;;
35757;SDS011;21879;50.110;18.900;2022-07-10T09:29:24;4.00;;;1.20;;
35757;SDS011;21879;50.110;18.900;2022-07-10T09:39:55;2.70;;;1.10;;
35757;SDS011;21879;50.110;18.900;2022-07-10T09:50:27;5.70;;;1.00;;
35757;SDS011;21879;50.110;18.900;2022-07-10T10:00:59;5.00;;;1.40;;
35757;SDS011;21879;50.110;18.900;2022-07-10T10:11:30;2.70;;;1.10;;
35757;SDS011;21879;50.110;18.900;2022-07-10T10:22:02;3.00;;;1.40;;
35757;SDS011;21879;50.110;18.900;2022-07-10T10:32:40;4.10;;;1.20;;
35757;SDS011;21879;50.110;18.900;2022-07-10T10:43:19;4.80;;;1.40;;
35757;SDS011;21879;50.110;18.900;2022-07-10T10:53:50;4.40;;;1.30;;
35757;SDS011;21879;50.110;18.900;2022-07-10T11:04:33;1.30;;;0.80;;
35757;SDS011;21879;50.110;18.900;2022-07-10T11:15:07;2.90;;;0.80;;
35757;SDS011;21879;50.110;18.900;2022-07-10T11:25:45;1.50;;;1.30;;
35757;SDS011;21879;50.110;18.900;2022-07-10T11:36:27;3.90;;;0.90;;
35757;SDS011;21879;50.110;18.900;2022-07-10T11:46:57;2.20;;;0.70;;
35757;SDS011;21879;50.110;18.900;2022-07-10T11:57:28;3.70;;;0.90;;
35757;SDS011;21879;50.110;18.900;2022-07-10T12:08:10;1.50;;;0.90;;
35757;SDS011;21879;50.110;18.900;2022-07-10T12:18:40;1.00;;;0.90;;
35757;SDS011;21879;50.110;18.900;2022-07-10T12:29:18;3.80;;;0.90;;
35757;SDS011;21879;50.110;18.900;2022-07-10T12:39:49;3.30;;;1.00;;
35757;SDS011;21879;50.110;18.900;2022-07-10T12:50:22;2.50;;;0.80;;
35757;SDS011;21879;50.110;18.900;2022-07-10T13:00:53;1.80;;;1.00;;
35757;SDS011;21879;50.110;18.900;2022-07-10T13:11:23;2.20;;;0.70;;
35757;SDS011;21879;50.110;18.900;2022-07-10T13:21:54;3.10;;;0.80;;
35757;SDS011;21879;50.110;18.900;2022-07-10T13:32:24;0.80;;;0.50;;
35757;SDS011;21879;50.110;18.900;2022-07-10T13:42:56;1.30;;;0.70;;
35757;SDS011;21879;50.110;18.900;2022-07-10T13:53:27;1.70;;;0.80;;
35757;SDS011;21879;50.110;18.900;2022-07-10T14:03:56;2.70;;;1.80;;
35757;SDS011;21879;50.110;18.900;2022-07-10T14:14:27;1.70;;;0.80;;
35757;SDS011;21879;50.110;18.900;2022-07-10T14:24:57;2.20;;;0.90;;
35757;SDS011;21879;50.110;18.900;2022-07-10T14:35:26;2.40;;;1.00;;
35757;SDS011;21879;50.110;18.900;2022-07-10T14:45:55;1.50;;;0.70;;
35757;SDS011;21879;50.110;18.900;2022-07-10T14:56:28;1.90;;;1.00;;
35757;SDS011;21879;50.110;18.900;2022-07-10T15:06:58;0.60;;;0.50;;
35757;SDS011;21879;50.110;18.900;2022-07-10T15:17:32;2.90;;;1.00;;
35757;SDS011;21879;50.110;18.900;2022-07-10T15:28:01;2.50;;;0.90;;
35757;SDS011;21879;50.110;18.900;2022-07-10T15:38:33;2.10;;;0.80;;
35757;SDS011;21879;50.110;18.900;2022-07-10T15:49:02;2.80;;;0.90;;
35757;SDS011;21879;50.110;18.900;2022-07-10T15:59:33;1.30;;;0.70;;
35757;SDS011;21879;50.110;18.900;2022-07-10T16:10:03;3.10;;;1.00;;
35757;SDS011;21879;50.110;18.900;2022-07-10T16:20:34;1.90;;;0.80;;
35757;SDS011;21879;50.110;18.900;2022-07-10T16:31:04;2.60;;;1.10;;
35757;SDS011;21879;50.110;18.900;2022-07-10T16:41:34;1.40;;;0.90;;
35757;SDS011;21879;50.110;18.900;2022-07-10T16:52:04;1.50;;;0.80;;
35757;SDS011;21879;50.110;18.900;2022-07-10T17:02:34;2.50;;;0.60;;
35757;SDS011;21879;50.110;18.900;2022-07-10T17:13:04;2.20;;;0.70;;
35757;SDS011;21879;50.110;18.900;2022-07-10T17:23:33;2.60;;;1.10;;
35757;SDS011;21879;50.110;18.900;2022-07-10T17:34:05;3.10;;;1.10;;
35757;SDS011;21879;50.110;18.900;2022-07-10T17:44:35;3.10;;;1.30;;
35757;SDS011;21879;50.110;18.900;2022-07-10T17:55:06;3.70;;;1.00;;
35757;SDS011;21879;50.110;18.900;2022-07-10T18:05:36;5.20;;;1.60;;
35757;SDS011;21879;50.110;18.900;2022-07-10T18:16:07;2.20;;;1.10;;
35757;SDS011;21879;50.110;18.900;2022-07-10T18:26:37;2.30;;;1.20;;
35757;SDS011;21879;50.110;18.900;2022-07-10T18:37:07;2.30;;;1.10;;
35757;SDS011;21879;50.110;18.900;2022-07-10T18:47:39;2.10;;;1.00;;
35757;SDS011;21879;50.110;18.900;2022-07-10T18:58:08;2.30;;;0.90;;
35757;SDS011;21879;50.110;18.900;2022-07-10T19:08:38;1.40;;;0.70;;
35757;SDS011;21879;50.110;18.900;2022-07-10T19:19:08;1.80;;;0.90;;
35757;SDS011;21879;50.110;18.900;2022-07-10T19:29:37;4.00;;;1.10;;
35757;SDS011;21879;50.110;18.900;2022-07-10T19:40:08;2.80;;;1.40;;
35757;SDS011;21879;50.110;18.900;2022-07-10T19:50:39;1.90;;;1.20;;
35757;SDS011;21879;50.110;18.900;2022-07-10T20:01:08;3.80;;;1.10;;
35757;SDS011;21879;50.110;18.900;2022-07-10T20:11:38;2.60;;;0.80;;
35757;SDS011;21879;50.110;18.900;2022-07-10T20:22:07;3.70;;;1.20;;
35757;SDS011;21879;50.110;18.900;2022-07-10T20:32:37;4.70;;;2.20;;
35757;SDS011;21879;50.110;18.900;2022-07-10T20:43:06;2.30;;;1.40;;
35757;SDS011;21879;50.110;18.900;2022-07-10T20:53:37;6.60;;;1.60;;
35757;SDS011;21879;50.110;18.900;2022-07-10T21:04:09;2.70;;;1.60;;
35757;SDS011;21879;50.110;18.900;2022-07-10T21:14:39;3.20;;;1.40;;
35757;SDS011;21879;50.110;18.900;2022-07-10T21:25:09;2.90;;;1.50;;
35757;SDS011;21879;50.110;18.900;2022-07-10T21:35:38;3.20;;;1.50;;
35757;SDS011;21879;50.110;18.900;2022-07-10T21:46:09;3.10;;;1.30;;
35757;SDS011;21879;50.110;18.900;2022-07-10T21:56:38;2.80;;;1.20;;
35757;SDS011;21879;50.110;18.900;2022-07-10T22:07:08;3.70;;;1.00;;
35757;SDS011;21879;50.110;18.900;2022-07-10T22:17:37;1.60;;;1.00;;
35757;SDS011;21879;50.110;18.900;2022-07-10T22:28:06;2.80;;;1.30;;
35757;SDS011;21879;50.110;18.900;2022-07-10T22:38:36;3.00;;;1.80;;
35757;SDS011;21879;50.110;18.900;2022-07-10T22:49:05;2.80;;;1.40;;
35757;SDS011;21879;50.110;18.900;2022-07-10T22:59:34;2.40;;;1.30;;
35757;SDS011;21879;50.110;18.900;2022-07-10T23:10:04;3.90;;;1.60;;
35757;SDS011;21879;50.110;18.900;2022-07-10T23:20:34;3.50;;;1.80;;
35757;SDS011;21879;50.110;18.900;2022-07-10T23:31:03;3.20;;;2.00;;
35757;SDS011;21879;50.110;18.900;2022-07-10T23:41:33;3.10;;;1.70;;
35757;SDS011;21879;50.110;18.900;2022-07-10T23:52:03;2.20;;;1.40;;
